Station: EHBK - 24/04/2019 13:25Z (il y a 28 minutes)
EHBK 241325Z AUTO 20020KT 170V230 9999 NSC 24/07 Q0999 TEMPO 19016G26KT
Vent du 200º - 20 kt (vent de direction variable de 170º à 230º)
Visibilité > 10 km
Pas de nuages significatifs
Température: +24ºC - Point de rosée: +07ºC - QNH: 999 hPa
Temporairement
Vent du 190º - 16 kt - rafales 26 kt